sensor_id;sensor_type;location;lat;lon;timestamp;temperature;humidity
11454;DHT22;5783;55.174;61.310;2022-07-03T00:00:22;23.40;50.80
11454;DHT22;5783;55.174;61.310;2022-07-03T00:02:51;23.40;50.80
11454;DHT22;5783;55.174;61.310;2022-07-03T00:05:21;23.40;50.80
11454;DHT22;5783;55.174;61.310;2022-07-03T00:07:50;23.40;50.80
11454;DHT22;5783;55.174;61.310;2022-07-03T00:10:19;23.40;50.90
11454;DHT22;5783;55.174;61.310;2022-07-03T00:12:48;23.40;50.90
11454;DHT22;5783;55.174;61.310;2022-07-03T00:15:17;23.40;50.40
11454;DHT22;5783;55.174;61.310;2022-07-03T00:17:46;23.40;51.00
11454;DHT22;5783;55.174;61.310;2022-07-03T00:20:15;23.40;51.00
11454;DHT22;5783;55.174;61.310;2022-07-03T00:22:45;23.40;51.10
11454;DHT22;5783;55.174;61.310;2022-07-03T00:25:15;23.40;51.10
11454;DHT22;5783;55.174;61.310;2022-07-03T00:27:45;23.40;50.60
11454;DHT22;5783;55.174;61.310;2022-07-03T00:30:16;23.40;51.20
11454;DHT22;5783;55.174;61.310;2022-07-03T00:32:47;23.40;51.20
11454;DHT22;5783;55.174;61.310;2022-07-03T00:35:18;23.50;51.30
11454;DHT22;5783;55.174;61.310;2022-07-03T00:37:48;23.40;51.30
11454;DHT22;5783;55.174;61.310;2022-07-03T00:40:17;23.40;51.40
11454;DHT22;5783;55.174;61.310;2022-07-03T00:42:49;23.40;51.40
11454;DHT22;5783;55.174;61.310;2022-07-03T00:45:20;23.50;51.50
11454;DHT22;5783;55.174;61.310;2022-07-03T00:47:50;23.50;51.50
11454;DHT22;5783;55.174;61.310;2022-07-03T00:50:24;23.50;51.40
11454;DHT22;5783;55.174;61.310;2022-07-03T00:52:53;23.50;51.40
11454;DHT22;5783;55.174;61.310;2022-07-03T00:55:25;23.50;51.40
11454;DHT22;5783;55.174;61.310;2022-07-03T00:57:56;23.50;51.40
11454;DHT22;5783;55.174;61.310;2022-07-03T01:00:25;23.50;51.40
11454;DHT22;5783;55.174;61.310;2022-07-03T01:06:08;23.50;51.60
11454;DHT22;5783;55.174;61.310;2022-07-03T01:08:40;23.40;51.40
11454;DHT22;5783;55.174;61.310;2022-07-03T01:11:28;23.40;51.40
11454;DHT22;5783;55.174;61.310;2022-07-03T01:17:45;23.40;51.50
11454;DHT22;5783;55.174;61.310;2022-07-03T01:20:32;23.40;51.60
11454;DHT22;5783;55.174;61.310;2022-07-03T01:28:14;23.40;51.60
11454;DHT22;5783;55.174;61.310;2022-07-03T01:31:03;23.30;51.50
11454;DHT22;5783;55.174;61.310;2022-07-03T01:33:35;23.30;51.50
11454;DHT22;5783;55.174;61.310;2022-07-03T01:38:56;23.30;51.50
11454;DHT22;5783;55.174;61.310;2022-07-03T01:41:29;23.30;51.50
11454;DHT22;5783;55.174;61.310;2022-07-03T01:44:00;23.30;51.50
11454;DHT22;5783;55.174;61.310;2022-07-03T01:46:32;23.40;51.60
11454;DHT22;5783;55.174;61.310;2022-07-03T01:49:02;23.40;51.60
11454;DHT22;5783;55.174;61.310;2022-07-03T01:51:34;23.40;51.60
11454;DHT22;5783;55.174;61.310;2022-07-03T01:54:04;23.40;51.50
11454;DHT22;5783;55.174;61.310;2022-07-03T01:56:34;23.40;51.40
11454;DHT22;5783;55.174;61.310;2022-07-03T01:59:04;23.40;51.40
11454;DHT22;5783;55.174;61.310;2022-07-03T02:11:18;23.30;51.50
11454;DHT22;5783;55.174;61.310;2022-07-03T02:17:17;23.30;51.50
11454;DHT22;5783;55.174;61.310;2022-07-03T02:20:07;23.20;51.50
11454;DHT22;5783;55.174;61.310;2022-07-03T02:22:57;23.20;51.60
11454;DHT22;5783;55.174;61.310;2022-07-03T02:25:47;23.30;51.60
11454;DHT22;5783;55.174;61.310;2022-07-03T02:28:40;23.30;51.50
11454;DHT22;5783;55.174;61.310;2022-07-03T02:31:10;23.30;51.50
11454;DHT22;5783;55.174;61.310;2022-07-03T02:33:43;23.30;51.60
11454;DHT22;5783;55.174;61.310;2022-07-03T02:36:14;23.30;51.50
11454;DHT22;5783;55.174;61.310;2022-07-03T02:38:45;23.30;51.50
11454;DHT22;5783;55.174;61.310;2022-07-03T02:41:20;23.30;51.40
11454;DHT22;5783;55.174;61.310;2022-07-03T03:09:07;23.50;51.20
11454;DHT22;5783;55.174;61.310;2022-07-03T03:26:27;23.50;51.00
11454;DHT22;5783;55.174;61.310;2022-07-03T03:28:59;23.50;50.90
11454;DHT22;5783;55.174;61.310;2022-07-03T03:31:28;23.50;50.80
11454;DHT22;5783;55.174;61.310;2022-07-03T03:33:58;23.50;50.80
11454;DHT22;5783;55.174;61.310;2022-07-03T03:36:29;23.60;50.20
11454;DHT22;5783;55.174;61.310;2022-07-03T03:38:58;23.60;50.60
11454;DHT22;5783;55.174;61.310;2022-07-03T03:41:27;23.60;50.50
11454;DHT22;5783;55.174;61.310;2022-07-03T03:43:56;23.60;50.40
11454;DHT22;5783;55.174;61.310;2022-07-03T03:46:26;23.60;50.40
11454;DHT22;5783;55.174;61.310;2022-07-03T03:48:55;23.60;50.40
11454;DHT22;5783;55.174;61.310;2022-07-03T03:51:25;23.60;50.30
11454;DHT22;5783;55.174;61.310;2022-07-03T03:53:54;23.70;50.30
11454;DHT22;5783;55.174;61.310;2022-07-03T03:56:24;23.70;50.30
11454;DHT22;5783;55.174;61.310;2022-07-03T03:58:53;23.70;50.30
11454;DHT22;5783;55.174;61.310;2022-07-03T04:01:23;23.70;50.30
11454;DHT22;5783;55.174;61.310;2022-07-03T04:03:52;23.70;50.20
11454;DHT22;5783;55.174;61.310;2022-07-03T04:06:21;23.70;50.10
11454;DHT22;5783;55.174;61.310;2022-07-03T04:08:50;23.70;50.10
11454;DHT22;5783;55.174;61.310;2022-07-03T04:11:19;23.70;50.10
11454;DHT22;5783;55.174;61.310;2022-07-03T04:13:48;23.70;50.10
11454;DHT22;5783;55.174;61.310;2022-07-03T04:16:17;23.70;50.00
11454;DHT22;5783;55.174;61.310;2022-07-03T04:18:47;23.80;50.50
11454;DHT22;5783;55.174;61.310;2022-07-03T04:21:16;23.80;50.00
11454;DHT22;5783;55.174;61.310;2022-07-03T04:23:45;23.80;50.10
11454;DHT22;5783;55.174;61.310;2022-07-03T04:26:14;23.80;49.90
11454;DHT22;5783;55.174;61.310;2022-07-03T04:28:44;23.80;49.80
11454;DHT22;5783;55.174;61.310;2022-07-03T04:31:13;23.80;49.80
11454;DHT22;5783;55.174;61.310;2022-07-03T04:33:42;23.80;49.80
11454;DHT22;5783;55.174;61.310;2022-07-03T04:36:11;23.80;49.80
11454;DHT22;5783;55.174;61.310;2022-07-03T04:38:40;23.80;49.80
11454;DHT22;5783;55.174;61.310;2022-07-03T04:41:09;23.80;49.50
11454;DHT22;5783;55.174;61.310;2022-07-03T04:43:38;23.80;49.30
11454;DHT22;5783;55.174;61.310;2022-07-03T04:46:08;23.70;48.80
11454;DHT22;5783;55.174;61.310;2022-07-03T04:48:37;23.70;48.70
11454;DHT22;5783;55.174;61.310;2022-07-03T04:51:06;23.70;49.00
11454;DHT22;5783;55.174;61.310;2022-07-03T04:53:35;23.70;49.20
11454;DHT22;5783;55.174;61.310;2022-07-03T04:56:05;23.70;48.80
11454;DHT22;5783;55.174;61.310;2022-07-03T04:58:34;23.70;49.40
11454;DHT22;5783;55.174;61.310;2022-07-03T05:01:03;23.70;49.20
11454;DHT22;5783;55.174;61.310;2022-07-03T05:03:32;23.70;50.20
11454;DHT22;5783;55.174;61.310;2022-07-03T05:06:01;23.70;50.00
11454;DHT22;5783;55.174;61.310;2022-07-03T05:08:50;23.80;49.50
11454;DHT22;5783;55.174;61.310;2022-07-03T05:11:19;23.80;49.30
11454;DHT22;5783;55.174;61.310;2022-07-03T05:13:48;23.90;49.10
11454;DHT22;5783;55.174;61.310;2022-07-03T05:16:18;23.90;48.70
11454;DHT22;5783;55.174;61.310;2022-07-03T05:18:47;23.90;48.40
11454;DHT22;5783;55.174;61.310;2022-07-03T05:21:16;23.90;47.90
11454;DHT22;5783;55.174;61.310;2022-07-03T05:23:45;23.90;48.00
11454;DHT22;5783;55.174;61.310;2022-07-03T05:26:14;23.90;47.70
11454;DHT22;5783;55.174;61.310;2022-07-03T05:28:43;23.90;47.50
11454;DHT22;5783;55.174;61.310;2022-07-03T05:31:13;23.90;47.60
11454;DHT22;5783;55.174;61.310;2022-07-03T05:33:42;23.90;47.40
11454;DHT22;5783;55.174;61.310;2022-07-03T05:36:11;23.90;47.30
11454;DHT22;5783;55.174;61.310;2022-07-03T05:38:40;23.90;46.90
11454;DHT22;5783;55.174;61.310;2022-07-03T05:41:29;23.90;46.80
11454;DHT22;5783;55.174;61.310;2022-07-03T05:43:58;23.90;46.50
11454;DHT22;5783;55.174;61.310;2022-07-03T05:46:27;23.90;46.50
11454;DHT22;5783;55.174;61.310;2022-07-03T05:48:56;23.90;46.40
11454;DHT22;5783;55.174;61.310;2022-07-03T05:51:25;23.90;46.40
11454;DHT22;5783;55.174;61.310;2022-07-03T05:53:54;23.90;46.30
11454;DHT22;5783;55.174;61.310;2022-07-03T05:56:23;23.90;46.00
11454;DHT22;5783;55.174;61.310;2022-07-03T05:58:53;24.00;46.10
11454;DHT22;5783;55.174;61.310;2022-07-03T06:01:22;24.00;46.10
11454;DHT22;5783;55.174;61.310;2022-07-03T06:03:51;24.00;46.30
11454;DHT22;5783;55.174;61.310;2022-07-03T06:06:20;24.00;46.30
11454;DHT22;5783;55.174;61.310;2022-07-03T06:08:49;24.00;45.70
11454;DHT22;5783;55.174;61.310;2022-07-03T06:11:18;24.00;45.50
11454;DHT22;5783;55.174;61.310;2022-07-03T06:13:48;24.00;45.50
11454;DHT22;5783;55.174;61.310;2022-07-03T06:16:17;24.00;45.70
11454;DHT22;5783;55.174;61.310;2022-07-03T06:18:46;24.00;45.80
11454;DHT22;5783;55.174;61.310;2022-07-03T06:21:16;24.00;45.50
11454;DHT22;5783;55.174;61.310;2022-07-03T06:23:45;24.00;45.70
11454;DHT22;5783;55.174;61.310;2022-07-03T06:26:14;24.00;45.90
11454;DHT22;5783;55.174;61.310;2022-07-03T06:28:44;23.90;45.50
11454;DHT22;5783;55.174;61.310;2022-07-03T06:31:13;24.00;45.70
11454;DHT22;5783;55.174;61.310;2022-07-03T06:33:42;23.90;45.60
11454;DHT22;5783;55.174;61.310;2022-07-03T06:36:11;23.90;45.90
11454;DHT22;5783;55.174;61.310;2022-07-03T06:38:40;23.90;45.80
11454;DHT22;5783;55.174;61.310;2022-07-03T06:41:09;24.00;45.60
11454;DHT22;5783;55.174;61.310;2022-07-03T06:43:39;24.00;45.20
11454;DHT22;5783;55.174;61.310;2022-07-03T06:46:08;24.00;45.20
11454;DHT22;5783;55.174;61.310;2022-07-03T06:48:37;24.00;45.20
11454;DHT22;5783;55.174;61.310;2022-07-03T06:51:06;24.00;45.10
11454;DHT22;5783;55.174;61.310;2022-07-03T06:53:36;24.10;44.80
11454;DHT22;5783;55.174;61.310;2022-07-03T06:56:05;24.10;44.70
11454;DHT22;5783;55.174;61.310;2022-07-03T06:58:34;24.10;44.70
11454;DHT22;5783;55.174;61.310;2022-07-03T07:01:03;24.10;44.60
11454;DHT22;5783;55.174;61.310;2022-07-03T07:03:32;24.10;44.50
11454;DHT22;5783;55.174;61.310;2022-07-03T07:06:02;24.20;44.80
11454;DHT22;5783;55.174;61.310;2022-07-03T07:08:31;24.20;44.70
11454;DHT22;5783;55.174;61.310;2022-07-03T07:11:00;24.20;44.80
11454;DHT22;5783;55.174;61.310;2022-07-03T07:13:29;24.20;44.90
11454;DHT22;5783;55.174;61.310;2022-07-03T07:15:59;24.30;44.90
11454;DHT22;5783;55.174;61.310;2022-07-03T07:18:28;24.30;44.80
11454;DHT22;5783;55.174;61.310;2022-07-03T07:20:57;24.40;44.80
11454;DHT22;5783;55.174;61.310;2022-07-03T07:23:26;24.40;44.60
11454;DHT22;5783;55.174;61.310;2022-07-03T07:25:55;24.40;44.80
11454;DHT22;5783;55.174;61.310;2022-07-03T07:28:24;24.40;44.60
11454;DHT22;5783;55.174;61.310;2022-07-03T07:30:54;24.40;44.50
11454;DHT22;5783;55.174;61.310;2022-07-03T07:33:24;24.40;44.40
11454;DHT22;5783;55.174;61.310;2022-07-03T07:35:53;24.40;44.20
11454;DHT22;5783;55.174;61.310;2022-07-03T07:38:22;24.40;44.40
11454;DHT22;5783;55.174;61.310;2022-07-03T07:40:51;24.40;44.40
11454;DHT22;5783;55.174;61.310;2022-07-03T07:43:21;24.40;44.50
11454;DHT22;5783;55.174;61.310;2022-07-03T07:45:50;24.40;45.20
11454;DHT22;5783;55.174;61.310;2022-07-03T07:48:19;24.40;44.60
11454;DHT22;5783;55.174;61.310;2022-07-03T07:50:48;24.40;44.20
11454;DHT22;5783;55.174;61.310;2022-07-03T07:53:18;24.40;44.50
11454;DHT22;5783;55.174;61.310;2022-07-03T07:55:47;24.40;44.90
11454;DHT22;5783;55.174;61.310;2022-07-03T07:58:16;24.40;45.10
11454;DHT22;5783;55.174;61.310;2022-07-03T08:00:45;24.40;44.80
11454;DHT22;5783;55.174;61.310;2022-07-03T08:03:34;24.40;44.70
11454;DHT22;5783;55.174;61.310;2022-07-03T08:06:23;24.50;45.00
11454;DHT22;5783;55.174;61.310;2022-07-03T08:08:52;24.40;45.10
11454;DHT22;5783;55.174;61.310;2022-07-03T08:11:21;24.40;44.90
11454;DHT22;5783;55.174;61.310;2022-07-03T08:13:50;24.40;44.80
11454;DHT22;5783;55.174;61.310;2022-07-03T08:16:20;24.40;44.70
11454;DHT22;5783;55.174;61.310;2022-07-03T08:18:49;24.40;44.70
11454;DHT22;5783;55.174;61.310;2022-07-03T08:21:19;24.50;45.00
11454;DHT22;5783;55.174;61.310;2022-07-03T08:23:48;24.50;45.20
11454;DHT22;5783;55.174;61.310;2022-07-03T08:26:17;24.50;45.30
11454;DHT22;5783;55.174;61.310;2022-07-03T08:28:46;24.60;45.40
11454;DHT22;5783;55.174;61.310;2022-07-03T08:31:15;24.60;45.40
11454;DHT22;5783;55.174;61.310;2022-07-03T08:33:44;24.60;45.40
11454;DHT22;5783;55.174;61.310;2022-07-03T08:36:14;24.60;44.80
11454;DHT22;5783;55.174;61.310;2022-07-03T08:38:43;24.60;45.20
11454;DHT22;5783;55.174;61.310;2022-07-03T08:41:13;24.70;45.40
11454;DHT22;5783;55.174;61.310;2022-07-03T08:43:43;24.70;45.20
11454;DHT22;5783;55.174;61.310;2022-07-03T08:46:15;24.70;45.00
11454;DHT22;5783;55.174;61.310;2022-07-03T08:48:46;24.70;44.70
11454;DHT22;5783;55.174;61.310;2022-07-03T08:51:18;24.70;44.30
11454;DHT22;5783;55.174;61.310;2022-07-03T08:53:48;24.80;43.90
11454;DHT22;5783;55.174;61.310;2022-07-03T08:56:17;24.80;43.90
11454;DHT22;5783;55.174;61.310;2022-07-03T08:58:46;24.80;43.80
11454;DHT22;5783;55.174;61.310;2022-07-03T09:01:17;24.80;43.60
11454;DHT22;5783;55.174;61.310;2022-07-03T09:03:49;24.90;43.50
11454;DHT22;5783;55.174;61.310;2022-07-03T09:06:20;24.80;43.50
11454;DHT22;5783;55.174;61.310;2022-07-03T09:08:50;24.90;43.80
11454;DHT22;5783;55.174;61.310;2022-07-03T09:11:20;24.90;44.10
11454;DHT22;5783;55.174;61.310;2022-07-03T09:13:50;24.90;44.20
11454;DHT22;5783;55.174;61.310;2022-07-03T09:16:19;24.90;44.40
11454;DHT22;5783;55.174;61.310;2022-07-03T09:18:48;25.00;44.40
11454;DHT22;5783;55.174;61.310;2022-07-03T09:21:18;25.00;44.20
11454;DHT22;5783;55.174;61.310;2022-07-03T09:23:47;25.00;44.20
11454;DHT22;5783;55.174;61.310;2022-07-03T09:26:17;25.00;44.00
11454;DHT22;5783;55.174;61.310;2022-07-03T09:28:50;25.00;44.00
11454;DHT22;5783;55.174;61.310;2022-07-03T09:31:21;25.00;44.00
11454;DHT22;5783;55.174;61.310;2022-07-03T09:34:12;25.00;43.60
11454;DHT22;5783;55.174;61.310;2022-07-03T09:39:33;25.00;43.70
11454;DHT22;5783;55.174;61.310;2022-07-03T09:42:06;25.00;43.90
11454;DHT22;5783;55.174;61.310;2022-07-03T09:44:57;25.00;43.70
11454;DHT22;5783;55.174;61.310;2022-07-03T09:47:26;25.00;43.70
11454;DHT22;5783;55.174;61.310;2022-07-03T09:49:57;25.00;43.80
11454;DHT22;5783;55.174;61.310;2022-07-03T09:52:47;25.00;43.80
11454;DHT22;5783;55.174;61.310;2022-07-03T09:55:19;25.00;43.80
11454;DHT22;5783;55.174;61.310;2022-07-03T09:58:08;25.10;43.90
11454;DHT22;5783;55.174;61.310;2022-07-03T10:00:37;25.10;43.80
11454;DHT22;5783;55.174;61.310;2022-07-03T10:03:08;25.10;43.70
11454;DHT22;5783;55.174;61.310;2022-07-03T10:05:58;25.10;44.10
11454;DHT22;5783;55.174;61.310;2022-07-03T10:08:29;25.10;44.20
11454;DHT22;5783;55.174;61.310;2022-07-03T10:10:58;25.10;43.90
11454;DHT22;5783;55.174;61.310;2022-07-03T10:13:29;25.20;44.00
11454;DHT22;5783;55.174;61.310;2022-07-03T10:15:58;25.20;44.00
11454;DHT22;5783;55.174;61.310;2022-07-03T10:18:29;25.20;43.70
11454;DHT22;5783;55.174;61.310;2022-07-03T10:20:59;25.30;43.40
11454;DHT22;5783;55.174;61.310;2022-07-03T10:23:32;25.30;43.40
11454;DHT22;5783;55.174;61.310;2022-07-03T10:26:01;25.30;43.50
11454;DHT22;5783;55.174;61.310;2022-07-03T10:28:30;25.40;43.80
11454;DHT22;5783;55.174;61.310;2022-07-03T10:31:00;25.40;43.80
11454;DHT22;5783;55.174;61.310;2022-07-03T10:33:30;25.40;43.60
11454;DHT22;5783;55.174;61.310;2022-07-03T10:36:01;25.40;43.60
11454;DHT22;5783;55.174;61.310;2022-07-03T10:38:50;25.40;43.50
11454;DHT22;5783;55.174;61.310;2022-07-03T10:41:41;25.40;43.70
11454;DHT22;5783;55.174;61.310;2022-07-03T10:44:30;25.40;43.80
11454;DHT22;5783;55.174;61.310;2022-07-03T10:47:39;25.40;43.60
11454;DHT22;5783;55.174;61.310;2022-07-03T10:56:10;25.40;43.20
11454;DHT22;5783;55.174;61.310;2022-07-03T10:59:01;25.50;43.40
11454;DHT22;5783;55.174;61.310;2022-07-03T11:01:31;25.50;43.20
11454;DHT22;5783;55.174;61.310;2022-07-03T11:04:01;25.50;43.00
11454;DHT22;5783;55.174;61.310;2022-07-03T11:09:21;25.60;42.90
11454;DHT22;5783;55.174;61.310;2022-07-03T11:11:50;25.60;43.30
11454;DHT22;5783;55.174;61.310;2022-07-03T11:14:39;25.60;43.00
11454;DHT22;5783;55.174;61.310;2022-07-03T11:17:27;25.60;42.60
11454;DHT22;5783;55.174;61.310;2022-07-03T11:19:57;25.60;42.30
11454;DHT22;5783;55.174;61.310;2022-07-03T11:25:56;25.60;42.50
11454;DHT22;5783;55.174;61.310;2022-07-03T11:31:18;25.60;42.40
11454;DHT22;5783;55.174;61.310;2022-07-03T11:36:38;25.50;42.20
11454;DHT22;5783;55.174;61.310;2022-07-03T11:39:29;25.50;42.50
11454;DHT22;5783;55.174;61.310;2022-07-03T11:41:59;25.40;43.50
11454;DHT22;5783;55.174;61.310;2022-07-03T11:44:28;25.40;44.70
11454;DHT22;5783;55.174;61.310;2022-07-03T11:46:58;25.40;44.80
11454;DHT22;5783;55.174;61.310;2022-07-03T11:49:27;25.40;44.20
11454;DHT22;5783;55.174;61.310;2022-07-03T11:52:00;25.30;43.40
11454;DHT22;5783;55.174;61.310;2022-07-03T11:54:32;25.30;43.10
11454;DHT22;5783;55.174;61.310;2022-07-03T11:57:02;25.30;43.10
11454;DHT22;5783;55.174;61.310;2022-07-03T11:59:31;25.30;43.10
11454;DHT22;5783;55.174;61.310;2022-07-03T12:02:02;25.20;43.00
11454;DHT22;5783;55.174;61.310;2022-07-03T12:04:32;25.20;43.00
11454;DHT22;5783;55.174;61.310;2022-07-03T12:07:01;25.20;43.10
11454;DHT22;5783;55.174;61.310;2022-07-03T12:09:33;25.20;43.50
11454;DHT22;5783;55.174;61.310;2022-07-03T12:17:45;25.20;43.80
11454;DHT22;5783;55.174;61.310;2022-07-03T12:20:14;25.20;44.00
11454;DHT22;5783;55.174;61.310;2022-07-03T12:22:45;25.20;43.90
11454;DHT22;5783;55.174;61.310;2022-07-03T12:25:14;25.20;43.90
11454;DHT22;5783;55.174;61.310;2022-07-03T12:27:44;25.20;43.90
11454;DHT22;5783;55.174;61.310;2022-07-03T12:33:04;25.20;44.10
11454;DHT22;5783;55.174;61.310;2022-07-03T12:35:34;25.20;44.20
11454;DHT22;5783;55.174;61.310;2022-07-03T12:38:03;25.20;44.40
11454;DHT22;5783;55.174;61.310;2022-07-03T12:40:33;25.20;44.70
11454;DHT22;5783;55.174;61.310;2022-07-03T12:43:02;25.20;45.30
11454;DHT22;5783;55.174;61.310;2022-07-03T12:45:31;25.20;45.40
11454;DHT22;5783;55.174;61.310;2022-07-03T12:48:20;25.20;46.30
11454;DHT22;5783;55.174;61.310;2022-07-03T12:50:51;25.20;46.40
11454;DHT22;5783;55.174;61.310;2022-07-03T12:53:40;25.10;46.00
11454;DHT22;5783;55.174;61.310;2022-07-03T12:56:10;25.10;45.80
11454;DHT22;5783;55.174;61.310;2022-07-03T12:58:40;25.10;45.80
11454;DHT22;5783;55.174;61.310;2022-07-03T13:01:31;25.10;45.80
11454;DHT22;5783;55.174;61.310;2022-07-03T13:04:03;25.10;45.70
11454;DHT22;5783;55.174;61.310;2022-07-03T13:06:34;25.00;45.60
11454;DHT22;5783;55.174;61.310;2022-07-03T13:09:05;25.00;45.50
11454;DHT22;5783;55.174;61.310;2022-07-03T13:14:24;25.00;45.40
11454;DHT22;5783;55.174;61.310;2022-07-03T13:16:55;25.00;46.10
11454;DHT22;5783;55.174;61.310;2022-07-03T13:19:26;25.00;46.90
11454;DHT22;5783;55.174;61.310;2022-07-03T13:21:57;24.90;47.10
11454;DHT22;5783;55.174;61.310;2022-07-03T13:24:26;24.90;47.30
11454;DHT22;5783;55.174;61.310;2022-07-03T13:26:56;24.90;48.20
11454;DHT22;5783;55.174;61.310;2022-07-03T13:29:25;24.90;48.20
11454;DHT22;5783;55.174;61.310;2022-07-03T13:31:55;24.90;48.70
11454;DHT22;5783;55.174;61.310;2022-07-03T13:34:24;24.90;48.90
11454;DHT22;5783;55.174;61.310;2022-07-03T13:36:53;24.90;49.00
11454;DHT22;5783;55.174;61.310;2022-07-03T13:39:22;24.80;49.40
11454;DHT22;5783;55.174;61.310;2022-07-03T13:41:51;24.80;50.10
11454;DHT22;5783;55.174;61.310;2022-07-03T13:44:20;24.80;50.10
11454;DHT22;5783;55.174;61.310;2022-07-03T13:46:49;24.70;51.30
11454;DHT22;5783;55.174;61.310;2022-07-03T13:49:19;24.70;51.60
11454;DHT22;5783;55.174;61.310;2022-07-03T13:51:48;24.70;51.20
11454;DHT22;5783;55.174;61.310;2022-07-03T13:54:18;24.60;50.70
11454;DHT22;5783;55.174;61.310;2022-07-03T13:59:18;24.60;50.30
11454;DHT22;5783;55.174;61.310;2022-07-03T14:01:48;24.50;50.00
11454;DHT22;5783;55.174;61.310;2022-07-03T14:04:17;24.50;48.80
11454;DHT22;5783;55.174;61.310;2022-07-03T14:06:47;24.50;48.80
11454;DHT22;5783;55.174;61.310;2022-07-03T14:09:16;24.50;48.30
11454;DHT22;5783;55.174;61.310;2022-07-03T14:11:45;24.50;48.10
11454;DHT22;5783;55.174;61.310;2022-07-03T14:14:16;24.50;48.00
11454;DHT22;5783;55.174;61.310;2022-07-03T14:16:45;24.50;47.90
11454;DHT22;5783;55.174;61.310;2022-07-03T14:19:15;24.50;48.20
11454;DHT22;5783;55.174;61.310;2022-07-03T14:21:44;24.50;48.20
11454;DHT22;5783;55.174;61.310;2022-07-03T14:24:13;24.50;48.20
11454;DHT22;5783;55.174;61.310;2022-07-03T14:26:42;24.50;48.00
11454;DHT22;5783;55.174;61.310;2022-07-03T14:29:31;24.50;48.10
11454;DHT22;5783;55.174;61.310;2022-07-03T14:32:19;24.50;48.20
11454;DHT22;5783;55.174;61.310;2022-07-03T14:35:08;24.50;48.10
11454;DHT22;5783;55.174;61.310;2022-07-03T14:37:37;24.40;47.90
11454;DHT22;5783;55.174;61.310;2022-07-03T14:40:07;24.40;47.50
11454;DHT22;5783;55.174;61.310;2022-07-03T14:42:36;24.40;47.00
11454;DHT22;5783;55.174;61.310;2022-07-03T14:45:07;24.40;46.80
11454;DHT22;5783;55.174;61.310;2022-07-03T14:47:36;24.50;46.30
11454;DHT22;5783;55.174;61.310;2022-07-03T14:50:06;24.50;46.20
11454;DHT22;5783;55.174;61.310;2022-07-03T14:52:36;24.50;46.00
11454;DHT22;5783;55.174;61.310;2022-07-03T14:55:05;24.50;46.00
11454;DHT22;5783;55.174;61.310;2022-07-03T14:57:58;24.50;46.10
11454;DHT22;5783;55.174;61.310;2022-07-03T15:00:26;24.50;46.40
11454;DHT22;5783;55.174;61.310;2022-07-03T15:03:16;24.40;46.90
11454;DHT22;5783;55.174;61.310;2022-07-03T15:05:47;24.40;47.10
11454;DHT22;5783;55.174;61.310;2022-07-03T15:14:19;24.40;46.90
11454;DHT22;5783;55.174;61.310;2022-07-03T15:16:49;24.40;46.90
11454;DHT22;5783;55.174;61.310;2022-07-03T15:19:20;24.40;47.00
11454;DHT22;5783;55.174;61.310;2022-07-03T15:21:51;24.40;46.90
11454;DHT22;5783;55.174;61.310;2022-07-03T15:24:22;24.40;46.90
11454;DHT22;5783;55.174;61.310;2022-07-03T15:26:54;24.40;46.90
11454;DHT22;5783;55.174;61.310;2022-07-03T15:29:24;24.40;46.90
11454;DHT22;5783;55.174;61.310;2022-07-03T15:31:54;24.40;46.90
11454;DHT22;5783;55.174;61.310;2022-07-03T15:34:23;24.40;46.90
11454;DHT22;5783;55.174;61.310;2022-07-03T15:40:04;24.40;46.90
11454;DHT22;5783;55.174;61.310;2022-07-03T15:42:39;24.30;46.90
11454;DHT22;5783;55.174;61.310;2022-07-03T15:54:21;24.20;47.40
11454;DHT22;5783;55.174;61.310;2022-07-03T15:56:46;24.20;47.40
11454;DHT22;5783;55.174;61.310;2022-07-03T15:59:17;24.20;47.50
11454;DHT22;5783;55.174;61.310;2022-07-03T16:01:52;24.20;47.50
11454;DHT22;5783;55.174;61.310;2022-07-03T16:10:22;24.20;47.80
11454;DHT22;5783;55.174;61.310;2022-07-03T16:12:51;24.20;47.90
11454;DHT22;5783;55.174;61.310;2022-07-03T16:15:21;24.20;48.40
11454;DHT22;5783;55.174;61.310;2022-07-03T16:17:52;24.20;48.30
11454;DHT22;5783;55.174;61.310;2022-07-03T16:20:25;24.20;48.30
11454;DHT22;5783;55.174;61.310;2022-07-03T16:23:14;24.20;47.90
11454;DHT22;5783;55.174;61.310;2022-07-03T16:25:45;24.20;48.40
11454;DHT22;5783;55.174;61.310;2022-07-03T16:28:16;24.20;48.60
11454;DHT22;5783;55.174;61.310;2022-07-03T16:36:08;24.10;48.80
11454;DHT22;5783;55.174;61.310;2022-07-03T16:41:47;24.10;49.20
11454;DHT22;5783;55.174;61.310;2022-07-03T16:44:20;24.00;49.50
11454;DHT22;5783;55.174;61.310;2022-07-03T16:46:51;24.00;49.80
11454;DHT22;5783;55.174;61.310;2022-07-03T16:49:22;24.00;49.80
11454;DHT22;5783;55.174;61.310;2022-07-03T16:54:42;24.00;50.20
11454;DHT22;5783;55.174;61.310;2022-07-03T16:57:11;24.00;50.30
11454;DHT22;5783;55.174;61.310;2022-07-03T16:59:41;24.00;50.50
11454;DHT22;5783;55.174;61.310;2022-07-03T17:04:44;24.00;51.20
11454;DHT22;5783;55.174;61.310;2022-07-03T17:07:14;24.00;51.30
11454;DHT22;5783;55.174;61.310;2022-07-03T17:09:45;24.00;51.50
11454;DHT22;5783;55.174;61.310;2022-07-03T17:12:14;24.00;51.50
11454;DHT22;5783;55.174;61.310;2022-07-03T17:14:43;24.00;51.70
11454;DHT22;5783;55.174;61.310;2022-07-03T17:17:14;24.00;51.70
11454;DHT22;5783;55.174;61.310;2022-07-03T17:22:36;24.00;51.90
11454;DHT22;5783;55.174;61.310;2022-07-03T17:25:08;24.00;52.20
11454;DHT22;5783;55.174;61.310;2022-07-03T17:27:38;24.00;52.40
11454;DHT22;5783;55.174;61.310;2022-07-03T17:30:09;24.00;52.40
11454;DHT22;5783;55.174;61.310;2022-07-03T17:32:40;24.00;52.50
11454;DHT22;5783;55.174;61.310;2022-07-03T17:35:29;24.00;52.60
11454;DHT22;5783;55.174;61.310;2022-07-03T17:38:00;24.00;52.70
11454;DHT22;5783;55.174;61.310;2022-07-03T17:40:30;23.90;52.70
11454;DHT22;5783;55.174;61.310;2022-07-03T17:43:01;23.90;52.90
11454;DHT22;5783;55.174;61.310;2022-07-03T17:45:31;23.90;53.30
11454;DHT22;5783;55.174;61.310;2022-07-03T17:48:02;23.90;52.80
11454;DHT22;5783;55.174;61.310;2022-07-03T17:50:32;23.90;52.80
11454;DHT22;5783;55.174;61.310;2022-07-03T17:53:02;23.90;52.80
11454;DHT22;5783;55.174;61.310;2022-07-03T17:55:32;23.90;52.90
11454;DHT22;5783;55.174;61.310;2022-07-03T17:58:02;23.90;53.10
11454;DHT22;5783;55.174;61.310;2022-07-03T18:00:32;23.90;53.10
11454;DHT22;5783;55.174;61.310;2022-07-03T18:03:01;23.90;53.40
11454;DHT22;5783;55.174;61.310;2022-07-03T18:05:31;23.80;53.30
11454;DHT22;5783;55.174;61.310;2022-07-03T18:08:22;23.80;53.40
11454;DHT22;5783;55.174;61.310;2022-07-03T18:16:51;23.80;53.80
11454;DHT22;5783;55.174;61.310;2022-07-03T18:19:23;23.80;54.10
11454;DHT22;5783;55.174;61.310;2022-07-03T18:21:55;23.80;54.20
11454;DHT22;5783;55.174;61.310;2022-07-03T18:24:27;23.80;54.30
11454;DHT22;5783;55.174;61.310;2022-07-03T18:26:58;23.80;54.40